createdAt,value
2019-05-12T00:08:58.171Z,96602.11
2019-05-12T00:24:14.351Z,96600.39
2019-05-12T00:39:22.009Z,96592.77
2019-05-12T00:54:30.562Z,96598.98
2019-05-12T01:09:39.889Z,96594.41
2019-05-12T01:24:48.302Z,96612.86
2019-05-12T01:39:59.744Z,96613.11
2019-05-12T01:55:08.207Z,96619.33
2019-05-12T02:10:17.964Z,96627.92
2019-05-12T02:25:24.818Z,96617.53
2019-05-12T02:40:34.775Z,96631.82
2019-05-12T02:55:47.889Z,96632.08
2019-05-12T03:10:56.175Z,96639.94
2019-05-12T03:26:05.181Z,96654.39
2019-05-12T03:41:14.708Z,96660.69
2019-05-12T03:56:25.972Z,96671.13
2019-05-12T04:11:35.432Z,96701.14
2019-05-12T04:26:44.634Z,96716.95
2019-05-12T04:41:50.518Z,96737.39
2019-05-12T04:56:58.345Z,96751.88
2019-05-12T05:12:04.960Z,96763.74
2019-05-12T05:27:13.330Z,96793.72
2019-05-12T05:42:22.161Z,96809.64
2019-05-12T05:57:30.361Z,96820.81
2019-05-12T06:12:40.301Z,96830.63
2019-05-12T06:27:59.842Z,96851.20
2019-05-12T06:43:00.994Z,96849.02
2019-05-12T06:58:08.284Z,96859.92
2019-05-12T07:13:23.343Z,96868.17
2019-05-12T07:28:24.938Z,96870.27
2019-05-12T07:43:34.475Z,96881.80
2019-05-12T07:58:52.962Z,96883.55
2019-05-12T08:13:54.883Z,96881.40
2019-05-12T08:29:04.263Z,96900.98
2019-05-12T08:44:10.590Z,96908.73
2019-05-12T08:59:18.471Z,96911.44
2019-05-12T09:14:28.200Z,96928.11
2019-05-12T09:29:34.914Z,96944.94
2019-05-12T09:44:43.816Z,96953.23
2019-05-12T09:59:57.361Z,96963.77
2019-05-12T10:14:59.110Z,96965.98
2019-05-12T10:30:12.383Z,96966.87
2019-05-12T10:45:23.318Z,96982.03
2019-05-12T11:00:30.175Z,96987.34
2019-05-12T11:15:44.828Z,96986.92
2019-05-12T11:30:48.362Z,96987.41
2019-05-12T11:45:55.928Z,97022.28
2019-05-12T12:01:08.143Z,97058.89
2019-05-12T12:16:14.090Z,97101.05
2019-05-12T12:31:29.716Z,97134.91
2019-05-12T12:46:33.919Z,97155.91
2019-05-12T13:01:44.285Z,97188.48
2019-05-12T13:16:54.680Z,97219.71
2019-05-12T13:32:03.208Z,97233.63
2019-05-12T13:47:10.339Z,97242.73
2019-05-12T14:02:22.163Z,97253.09
2019-05-12T14:17:30.962Z,97260.72
2019-05-12T14:32:37.328Z,97277.09
2019-05-12T14:47:49.032Z,97300.44
2019-05-12T15:02:59.124Z,97327.38
2019-05-12T15:18:10.126Z,97333.19
2019-05-12T15:33:14.428Z,97368.86
2019-05-12T15:48:25.599Z,97391.77
2019-05-12T16:03:28.387Z,97417.28
2019-05-12T16:18:35.242Z,97441.61
2019-05-12T16:33:43.629Z,97460.13
2019-05-12T16:48:54.508Z,97492.27
2019-05-12T17:03:58.604Z,97507.41
2019-05-12T17:19:10.521Z,97523.34
2019-05-12T17:34:16.355Z,97546.25
2019-05-12T17:49:29.430Z,97567.36
2019-05-12T18:04:37.015Z,97571.30
2019-05-12T18:19:44.472Z,97588.46
2019-05-12T18:34:53.799Z,97605.15
2019-05-12T18:50:04.487Z,97626.19
2019-05-12T19:05:15.283Z,97643.25
2019-05-12T19:20:23.989Z,97662.14
2019-05-12T19:35:34.153Z,97654.25
2019-05-12T19:50:44.475Z,97663.00
2019-05-12T20:06:02.912Z,97674.30
2019-05-12T20:21:15.633Z,97706.28
2019-05-12T20:36:25.971Z,97711.94
2019-05-12T20:51:33.915Z,97725.91
2019-05-12T21:06:43.057Z,97722.35
2019-05-12T21:21:48.779Z,97715.81
2019-05-12T21:36:58.810Z,97727.65
2019-05-12T21:52:06.398Z,97736.91
2019-05-12T22:07:15.073Z,97753.99
2019-05-12T22:22:28.091Z,97759.98
2019-05-12T22:37:34.831Z,97777.95
2019-05-12T22:52:47.343Z,97787.93
2019-05-12T23:07:49.246Z,97797.15
2019-05-12T23:22:56.906Z,97795.39
2019-05-12T23:38:04.560Z,97805.03
2019-05-12T23:53:13.792Z,97798.81
